Time;durP1;ratioP1;P1;durP2;ratioP2;P2;SDS_P1;SDS_P2;PMS_P1;PMS_P2;Temp;Humidity;BMP_temperature;BMP_pressure;BME280_temperature;BME280_humidity;BME280_pressure;Samples;Min_cycle;Max_cycle;Signal;HPM_P1;HPM_P2
2023/05/02 00:00:35;;;;;;;10.32;5.03;;;11.40;99.90;;;;;;5040331;28;20542;-34
2023/05/02 00:03:01;;;;;;;8.00;4.22;;;11.40;99.90;;;;;;5031110;28;20050;-34
2023/05/02 00:05:27;;;;;;;11.32;4.20;;;11.40;99.90;;;;;;5030414;28;20052;-34
2023/05/02 00:07:53;;;;;;;8.25;4.50;;;11.40;99.90;;;;;;5030525;28;20411;-34
2023/05/02 00:10:18;;;;;;;10.60;4.50;;;11.40;99.90;;;;;;5031052;28;20477;-34
2023/05/02 00:12:44;;;;;;;9.38;4.10;;;11.40;99.90;;;;;;5029624;28;20053;-34
2023/05/02 00:15:10;;;;;;;10.68;4.05;;;11.30;99.90;;;;;;5030972;28;20497;-34
2023/05/02 00:17:38;;;;;;;12.38;4.88;;;11.30;99.90;;;;;;5030171;28;20419;-34
2023/05/02 00:20:04;;;;;;;7.95;3.10;;;11.30;99.90;;;;;;5029960;28;20052;-34
2023/05/02 00:22:31;;;;;;;7.45;3.22;;;11.20;99.90;;;;;;5046051;28;20127;-34
2023/05/02 00:24:57;;;;;;;6.47;2.13;;;11.10;99.90;;;;;;5045255;28;20076;-34
2023/05/02 00:27:23;;;;;;;7.85;2.40;;;11.00;99.90;;;;;;5030530;28;20045;-34
2023/05/02 00:29:48;;;;;;;7.13;2.90;;;10.90;99.90;;;;;;5049441;28;20060;-34
2023/05/02 00:32:14;;;;;;;8.40;2.45;;;10.80;99.90;;;;;;5043477;28;20061;-34
2023/05/02 00:34:40;;;;;;;7.43;2.17;;;10.80;99.90;;;;;;5031848;28;20415;-34
2023/05/02 00:37:06;;;;;;;4.30;1.60;;;10.80;99.90;;;;;;5050027;28;20808;-34
2023/05/02 00:39:34;;;;;;;4.97;1.55;;;10.70;99.90;;;;;;5032258;28;20045;-34
2023/05/02 00:42:00;;;;;;;5.65;2.10;;;10.70;99.90;;;;;;5029848;28;20049;-34
2023/05/02 00:44:26;;;;;;;7.70;1.42;;;10.70;99.90;;;;;;5029839;28;20561;-34
2023/05/02 00:46:53;;;;;;;8.63;1.33;;;10.70;99.90;;;;;;5030054;28;20064;-34
2023/05/02 00:49:19;;;;;;;4.50;1.50;;;10.70;99.90;;;;;;5030359;28;20087;-34
2023/05/02 00:51:45;;;;;;;2.83;1.30;;;10.70;99.90;;;;;;5029627;28;20077;-34
2023/05/02 00:54:12;;;;;;;4.45;1.75;;;10.60;99.90;;;;;;5029917;28;20385;-34
2023/05/02 00:56:37;;;;;;;5.75;1.50;;;10.70;99.90;;;;;;5037864;28;20510;-34
2023/05/02 00:59:04;;;;;;;6.05;1.35;;;10.70;99.90;;;;;;5037176;28;20045;-34
2023/05/02 01:01:50;;;;;;;5.43;1.10;;;10.70;99.90;;;;;;5037716;28;20410;-34
2023/05/02 01:04:15;;;;;;;6.68;1.92;;;10.70;99.90;;;;;;5034836;28;20057;-34
2023/05/02 01:06:41;;;;;;;5.90;1.83;;;10.60;99.90;;;;;;5054650;28;20461;-34
2023/05/02 01:09:21;;;;;;;5.75;2.05;;;10.60;99.90;;;;;;5049624;28;20045;-34
2023/05/02 01:12:03;;;;;;;8.75;1.98;;;10.60;99.90;;;;;;5049194;28;20048;-34
2023/05/02 01:14:33;;;;;;;10.43;1.70;;;10.60;99.90;;;;;;5049393;28;20049;-34
2023/05/02 01:17:03;;;;;;;3.78;1.20;;;10.50;99.90;;;;;;5048635;28;20122;-34
2023/05/02 01:19:35;;;;;;;4.50;1.33;;;10.60;99.90;;;;;;5042414;28;20049;-34
2023/05/02 01:22:07;;;;;;;6.20;1.77;;;10.60;99.90;;;;;;5045504;28;20054;-34
2023/05/02 01:25:15;;;;;;;6.68;1.45;;;10.50;99.90;;;;;;5030291;28;20053;-34
2023/05/02 01:28:10;;;;;;;10.13;2.20;;;10.50;99.90;;;;;;5012616;28;20059;-34
2023/05/02 01:30:40;;;;;;;3.42;1.15;;;10.50;99.90;;;;;;5031516;28;20072;-34
2023/05/02 01:33:10;;;;;;;5.15;1.27;;;10.50;99.90;;;;;;5029546;28;20144;-34
2023/05/02 01:35:36;;;;;;;6.38;1.67;;;10.50;99.90;;;;;;5028947;28;20049;-34
2023/05/02 01:38:04;;;;;;;8.15;1.77;;;10.50;99.90;;;;;;5029462;28;20057;-34
2023/05/02 01:40:33;;;;;;;6.32;1.90;;;10.50;99.90;;;;;;5029699;28;20052;-34
2023/05/02 01:42:59;;;;;;;7.05;1.65;;;10.50;99.90;;;;;;5029368;28;20061;-34
2023/05/02 01:45:28;;;;;;;3.22;1.20;;;10.40;99.90;;;;;;5045875;28;20064;-34
2023/05/02 01:47:54;;;;;;;4.25;1.20;;;10.40;99.90;;;;;;5049319;28;20055;-34
2023/05/02 01:50:23;;;;;;;7.47;1.50;;;10.40;99.90;;;;;;5048622;28;20049;-34
2023/05/02 01:52:51;;;;;;;4.78;1.60;;;10.40;99.90;;;;;;5050193;28;20049;-34
2023/05/02 01:55:17;;;;;;;6.75;1.38;;;10.40;99.90;;;;;;5053074;28;20061;-35
2023/05/02 01:57:45;;;;;;;8.65;1.55;;;10.40;99.90;;;;;;5052473;28;20056;-34
2023/05/02 02:00:12;;;;;;;4.13;1.55;;;10.40;99.90;;;;;;5053129;28;20052;-34
2023/05/02 02:02:41;;;;;;;6.15;1.65;;;10.40;99.90;;;;;;5042677;28;20045;-34
2023/05/02 02:05:09;;;;;;;6.60;2.10;;;10.30;99.90;;;;;;5039719;28;20052;-34
2023/05/02 02:07:35;;;;;;;6.47;1.90;;;10.30;99.90;;;;;;5035204;28;20507;-34
2023/05/02 02:10:01;;;;;;;3.83;1.27;;;10.30;99.90;;;;;;5053149;28;20044;-34
2023/05/02 02:12:38;;;;;;;3.55;1.00;;;10.30;99.90;;;;;;5034803;28;20058;-34
2023/05/02 02:15:22;;;;;;;7.18;1.73;;;10.30;99.90;;;;;;5041422;28;20060;-34
2023/05/02 02:18:08;;;;;;;5.32;1.27;;;10.30;99.90;;;;;;5029303;28;20057;-34
2023/05/02 02:20:35;;;;;;;3.60;1.75;;;10.30;99.90;;;;;;5033856;28;20136;-34
2023/05/02 02:23:04;;;;;;;3.55;1.10;;;10.30;99.90;;;;;;5032973;28;20054;-34
2023/05/02 02:25:30;;;;;;;2.58;1.20;;;10.30;99.90;;;;;;5031841;28;20410;-34
2023/05/02 02:27:56;;;;;;;4.57;1.25;;;10.30;99.90;;;;;;5032369;28;20049;-34
2023/05/02 02:30:22;;;;;;;6.10;1.80;;;10.30;99.90;;;;;;5032607;28;20084;-34
2023/05/02 02:32:48;;;;;;;3.80;1.17;;;10.40;99.90;;;;;;5034436;28;20073;-34
2023/05/02 02:35:13;;;;;;;6.55;1.60;;;10.40;99.90;;;;;;5045832;28;20088;-34
2023/05/02 02:37:53;;;;;;;6.35;1.50;;;10.40;99.90;;;;;;5031731;28;20199;-34
2023/05/02 02:40:33;;;;;;;5.65;1.63;;;10.40;99.90;;;;;;5040788;28;20543;-34
2023/05/02 02:43:30;;;;;;;7.30;1.65;;;10.30;99.90;;;;;;5037225;28;20049;-34
2023/05/02 02:46:11;;;;;;;10.20;1.60;;;10.20;99.90;;;;;;5025285;28;20050;-34
2023/05/02 02:48:48;;;;;;;9.63;1.92;;;10.20;99.90;;;;;;5040027;28;20053;-33
2023/05/02 02:51:31;;;;;;;9.10;2.00;;;10.00;99.90;;;;;;5047085;28;20050;-34
2023/05/02 02:54:12;;;;;;;7.10;1.60;;;9.90;99.90;;;;;;5024596;28;20143;-33
2023/05/02 02:56:44;;;;;;;7.60;2.00;;;9.90;99.90;;;;;;5031182;28;20145;-34
2023/05/02 02:59:34;;;;;;;9.05;2.20;;;9.90;99.90;;;;;;5045067;28;20060;-34
2023/05/02 03:02:13;;;;;;;11.85;2.30;;;9.80;99.90;;;;;;5032802;28;20052;-34
2023/05/02 03:04:45;;;;;;;8.48;2.17;;;9.70;99.90;;;;;;5029881;28;20045;-34
2023/05/02 03:07:11;;;;;;;11.52;1.90;;;9.70;99.90;;;;;;5031995;28;20060;-33
2023/05/02 03:09:44;;;;;;;9.45;1.80;;;9.60;99.90;;;;;;5030925;28;20057;-34
2023/05/02 03:12:10;;;;;;;13.65;2.03;;;9.50;99.90;;;;;;5032051;28;20052;-34
2023/05/02 03:14:37;;;;;;;7.53;1.50;;;9.50;99.90;;;;;;5031459;28;20064;-33
2023/05/02 03:17:03;;;;;;;12.68;2.25;;;9.50;99.90;;;;;;5047918;28;20495;-34
2023/05/02 03:19:28;;;;;;;10.00;1.88;;;9.50;99.90;;;;;;5031811;28;20057;-34
2023/05/02 03:21:54;;;;;;;9.48;1.45;;;9.40;99.90;;;;;;5039035;28;20088;-34
2023/05/02 03:24:20;;;;;;;9.43;1.88;;;9.50;99.90;;;;;;5037450;28;20057;-34
2023/05/02 03:26:46;;;;;;;7.32;1.70;;;9.40;99.90;;;;;;5050548;28;20049;-34
2023/05/02 03:29:13;;;;;;;7.40;1.80;;;9.40;99.90;;;;;;5038747;28;20062;-34
2023/05/02 03:31:38;;;;;;;11.93;2.08;;;9.40;99.90;;;;;;5031345;28;20552;-34
2023/05/02 03:34:04;;;;;;;12.45;1.98;;;9.40;99.90;;;;;;5023202;28;20057;-34
2023/05/02 03:36:30;;;;;;;17.30;2.10;;;9.40;99.90;;;;;;5031520;28;20099;-34
2023/05/02 03:38:56;;;;;;;10.30;2.33;;;9.40;99.90;;;;;;5041007;28;20049;-34
2023/05/02 03:41:21;;;;;;;9.40;1.92;;;9.30;99.90;;;;;;5037368;28;20107;-34
2023/05/02 03:43:47;;;;;;;13.05;2.80;;;9.20;99.90;;;;;;5046673;28;20056;-34
2023/05/02 03:46:13;;;;;;;10.45;2.08;;;9.10;99.90;;;;;;5030383;28;20076;-34
2023/05/02 03:48:38;;;;;;;9.32;1.90;;;9.00;99.90;;;;;;5031431;28;20045;-34
2023/05/02 03:51:07;;;;;;;15.50;1.92;;;9.00;99.90;;;;;;5049948;28;20068;-34
2023/05/02 03:53:32;;;;;;;11.85;3.10;;;9.00;99.90;;;;;;5050056;28;20045;-34
2023/05/02 03:55:58;;;;;;;10.35;1.95;;;8.90;99.90;;;;;;5049800;28;20060;-33
2023/05/02 03:58:24;;;;;;;11.98;1.98;;;8.90;99.90;;;;;;5037019;28;20156;-34
2023/05/02 04:00:52;;;;;;;13.88;3.20;;;8.90;99.90;;;;;;5030372;28;20114;-33
2023/05/02 04:03:18;;;;;;;10.05;1.92;;;8.90;99.90;;;;;;5039065;28;20501;-34
2023/05/02 04:05:44;;;;;;;15.65;2.13;;;8.90;99.90;;;;;;5037089;28;20053;-34
2023/05/02 04:08:10;;;;;;;11.70;2.33;;;8.90;99.90;;;;;;5030537;28;20096;-34
2023/05/02 04:10:36;;;;;;;11.63;2.33;;;8.90;99.90;;;;;;5030525;28;20073;-34
2023/05/02 04:13:02;;;;;;;8.63;2.33;;;8.90;99.90;;;;;;5029869;28;20060;-35
2023/05/02 04:15:29;;;;;;;9.23;2.28;;;8.90;99.90;;;;;;5030394;28;20057;-33
2023/05/02 04:17:57;;;;;;;11.52;2.17;;;8.80;99.90;;;;;;5031509;28;20049;-34
2023/05/02 04:20:22;;;;;;;6.63;1.52;;;8.80;99.90;;;;;;5037055;28;20061;-33
2023/05/02 04:22:49;;;;;;;10.40;2.17;;;8.80;99.90;;;;;;5029820;28;20057;-34
2023/05/02 04:25:15;;;;;;;7.50;1.83;;;8.80;99.90;;;;;;5034535;28;20075;-33
2023/05/02 04:27:41;;;;;;;10.15;1.73;;;8.80;99.90;;;;;;5034585;28;20054;-33
2023/05/02 04:30:07;;;;;;;9.63;2.45;;;8.80;99.90;;;;;;5029420;28;20148;-34
2023/05/02 04:32:32;;;;;;;7.45;1.50;;;8.80;99.90;;;;;;5038867;28;20835;-34
2023/05/02 04:34:58;;;;;;;14.60;1.60;;;8.80;99.90;;;;;;5029567;28;20057;-34
2023/05/02 04:37:24;;;;;;;8.15;1.58;;;8.70;99.90;;;;;;5027737;28;20068;-34
2023/05/02 04:39:50;;;;;;;12.32;1.75;;;8.70;99.90;;;;;;5040890;28;20120;-34
2023/05/02 04:42:16;;;;;;;6.50;1.67;;;8.70;99.90;;;;;;5030127;28;20207;-34
2023/05/02 04:44:41;;;;;;;11.48;2.15;;;8.70;99.90;;;;;;5030024;28;20049;-34
2023/05/02 04:47:07;;;;;;;6.43;1.20;;;8.70;99.90;;;;;;5030675;28;20128;-34
2023/05/02 04:49:33;;;;;;;9.45;1.92;;;8.70;99.90;;;;;;5050233;28;20499;-34
2023/05/02 04:51:58;;;;;;;8.70;1.25;;;8.70;99.90;;;;;;5031489;28;20415;-34
2023/05/02 04:54:24;;;;;;;5.70;0.93;;;8.60;99.90;;;;;;5030048;28;20057;-34
2023/05/02 04:56:50;;;;;;;5.53;1.10;;;8.60;99.90;;;;;;5029395;28;20057;-34
2023/05/02 04:59:15;;;;;;;7.53;1.90;;;8.60;99.90;;;;;;5033152;28;20155;-34
2023/05/02 05:01:42;;;;;;;11.43;1.35;;;8.60;99.90;;;;;;5042615;28;20045;-38
2023/05/02 05:04:07;;;;;;;6.28;1.48;;;8.60;99.90;;;;;;5029082;28;20041;-33
2023/05/02 05:06:33;;;;;;;6.78;1.30;;;8.50;99.90;;;;;;5043839;28;20171;-33
2023/05/02 05:08:58;;;;;;;10.60;1.20;;;8.60;99.90;;;;;;5047703;28;20057;-35
2023/05/02 05:11:25;;;;;;;5.57;1.20;;;8.60;99.90;;;;;;5029546;28;20134;-33
2023/05/02 05:13:50;;;;;;;4.13;1.02;;;8.60;99.90;;;;;;5028804;28;20060;-33
2023/05/02 05:16:16;;;;;;;9.63;1.20;;;8.60;99.90;;;;;;5032994;28;20053;-34
2023/05/02 05:18:42;;;;;;;5.13;0.90;;;8.60;99.90;;;;;;5049629;28;20147;-33
2023/05/02 05:21:08;;;;;;;7.80;0.95;;;8.60;99.90;;;;;;5030062;28;20492;-33
2023/05/02 05:23:35;;;;;;;9.10;1.05;;;8.70;99.90;;;;;;5029272;28;20545;-34
2023/05/02 05:26:12;;;;;;;8.45;2.45;;;8.70;99.90;;;;;;5030138;28;20049;-33
2023/05/02 05:28:38;;;;;;;7.63;1.05;;;8.70;99.90;;;;;;5029052;28;20042;-33
2023/05/02 05:31:16;;;;;;;7.10;1.08;;;8.70;99.90;;;;;;5037162;28;20064;-33
2023/05/02 05:33:42;;;;;;;16.25;2.42;;;8.70;99.90;;;;;;5022615;28;20522;-33
2023/05/02 05:36:13;;;;;;;10.05;1.00;;;8.70;99.90;;;;;;5028949;28;20419;-33
2023/05/02 05:38:39;;;;;;;7.47;0.80;;;8.70;99.90;;;;;;5037254;28;20053;-34
2023/05/02 05:41:05;;;;;;;7.28;1.00;;;8.60;99.90;;;;;;5037169;28;20060;-33
2023/05/02 05:43:31;;;;;;;2.80;0.70;;;8.60;99.90;;;;;;5029565;28;20518;-33
2023/05/02 05:45:56;;;;;;;5.07;1.00;;;8.50;99.90;;;;;;5029237;28;20076;-33
2023/05/02 05:48:22;;;;;;;5.35;0.70;;;8.50;99.90;;;;;;5049137;28;20069;-33
2023/05/02 05:50:48;;;;;;;8.18;1.17;;;8.50;99.90;;;;;;5049236;28;20464;-33
2023/05/02 05:53:14;;;;;;;4.70;0.80;;;8.60;99.90;;;;;;5031406;28;20103;-33
2023/05/02 05:55:41;;;;;;;3.30;0.73;;;8.60;99.90;;;;;;5042802;28;20091;-33
2023/05/02 05:58:07;;;;;;;7.45;0.85;;;8.70;99.90;;;;;;5028499;28;20069;-33
2023/05/02 06:00:34;;;;;;;6.05;0.90;;;8.70;99.90;;;;;;5028897;28;20057;-33
2023/05/02 06:03:00;;;;;;;6.05;0.80;;;8.80;99.90;;;;;;5028626;28;20056;-33
2023/05/02 06:05:25;;;;;;;2.50;0.70;;;8.90;99.90;;;;;;5028919;28;20415;-33
2023/05/02 06:07:51;;;;;;;6.40;1.55;;;8.90;99.90;;;;;;5028839;28;20077;-34
2023/05/02 06:10:17;;;;;;;4.50;0.60;;;9.00;99.90;;;;;;5037141;28;20408;-34
2023/05/02 06:12:42;;;;;;;4.63;0.90;;;9.00;99.90;;;;;;5028915;28;20046;-34
2023/05/02 06:15:08;;;;;;;4.35;0.70;;;9.00;99.90;;;;;;5029583;28;20041;-34
2023/05/02 06:17:34;;;;;;;5.57;0.82;;;9.10;99.90;;;;;;5048572;28;20798;-34
2023/05/02 06:19:59;;;;;;;10.60;0.80;;;9.10;99.90;;;;;;5031823;28;20266;-33
2023/05/02 06:22:25;;;;;;;4.88;1.05;;;9.20;99.90;;;;;;5028808;28;20054;-34
2023/05/02 06:24:51;;;;;;;4.53;0.82;;;9.30;99.90;;;;;;5028446;28;20053;-34
2023/05/02 06:27:16;;;;;;;5.68;0.75;;;9.30;99.90;;;;;;5031027;28;20046;-34
2023/05/02 06:29:42;;;;;;;7.68;1.45;;;9.40;99.90;;;;;;5034609;28;20419;-34
2023/05/02 06:32:08;;;;;;;4.90;1.00;;;9.50;99.90;;;;;;5037306;28;20041;-34
2023/05/02 06:34:34;;;;;;;7.50;2.03;;;9.50;99.90;;;;;;5043865;28;20563;-34
2023/05/02 06:37:00;;;;;;;3.35;0.70;;;9.50;99.90;;;;;;5027059;28;20053;-34
2023/05/02 06:39:26;;;;;;;5.28;0.57;;;9.60;99.90;;;;;;5042284;28;20049;-34
2023/05/02 06:41:57;;;;;;;3.33;0.80;;;9.50;99.90;;;;;;5051986;28;20049;-34
2023/05/02 06:44:22;;;;;;;3.95;0.70;;;9.50;99.90;;;;;;5035205;28;20099;-34
2023/05/02 06:46:48;;;;;;;5.55;1.15;;;9.40;99.90;;;;;;5051427;28;20489;-34
2023/05/02 06:49:14;;;;;;;4.93;0.88;;;9.30;99.90;;;;;;5041731;28;20119;-35
2023/05/02 06:51:40;;;;;;;5.55;1.02;;;9.20;99.90;;;;;;5032352;28;20088;-35
2023/05/02 06:54:06;;;;;;;3.70;0.73;;;9.20;99.90;;;;;;5039737;28;20121;-34
2023/05/02 06:56:31;;;;;;;3.88;0.88;;;9.40;99.90;;;;;;5032405;28;20162;-35
2023/05/02 06:58:57;;;;;;;4.25;0.77;;;9.60;99.90;;;;;;5046988;28;20061;-35
2023/05/02 07:01:23;;;;;;;9.25;0.80;;;9.90;99.90;;;;;;5048321;28;20065;-35
2023/05/02 07:03:48;;;;;;;5.40;0.82;;;10.00;99.90;;;;;;5031821;28;20049;-34
2023/05/02 07:06:14;;;;;;;6.93;1.30;;;10.20;99.90;;;;;;5041232;28;20139;-34
2023/05/02 07:08:40;;;;;;;7.18;1.00;;;10.30;99.90;;;;;;5038716;28;20065;-35
2023/05/02 07:11:06;;;;;;;3.97;0.65;;;10.30;99.90;;;;;;5046623;28;20081;-34
2023/05/02 07:13:31;;;;;;;4.97;0.82;;;10.30;99.90;;;;;;5032025;28;20495;-35
2023/05/02 07:15:57;;;;;;;8.02;1.17;;;10.20;99.90;;;;;;5031609;28;20045;-35
2023/05/02 07:18:23;;;;;;;5.45;1.15;;;10.20;99.90;;;;;;5039457;28;20069;-35
2023/05/02 07:20:48;;;;;;;5.47;0.93;;;10.20;99.90;;;;;;5032182;28;20053;-35
2023/05/02 07:23:14;;;;;;;5.38;0.80;;;10.20;99.90;;;;;;5030797;28;20052;-34
2023/05/02 07:25:40;;;;;;;5.38;0.80;;;10.20;99.90;;;;;;5031898;28;20533;-35
2023/05/02 07:28:06;;;;;;;7.13;1.10;;;10.20;99.90;;;;;;5039224;28;20059;-34
2023/05/02 07:30:31;;;;;;;3.85;0.90;;;10.20;99.90;;;;;;5047571;28;20386;-35
2023/05/02 07:32:57;;;;;;;5.63;0.90;;;10.30;99.90;;;;;;5031447;28;20057;-35
2023/05/02 07:35:23;;;;;;;6.68;1.67;;;10.30;99.90;;;;;;5031670;28;20396;-35
2023/05/02 07:37:48;;;;;;;4.90;1.10;;;10.30;99.90;;;;;;5031187;28;20050;-35
2023/05/02 07:40:14;;;;;;;6.25;1.02;;;10.30;99.90;;;;;;5031719;28;20539;-34
2023/05/02 07:42:40;;;;;;;5.82;1.33;;;10.40;99.90;;;;;;5038582;28;20057;-35
2023/05/02 07:45:07;;;;;;;7.05;1.50;;;10.40;99.90;;;;;;5031161;28;20052;-35
2023/05/02 07:47:32;;;;;;;6.40;1.33;;;10.50;99.90;;;;;;5039149;28;20122;-35
2023/05/02 07:49:58;;;;;;;13.20;1.35;;;10.50;99.90;;;;;;5031186;28;20049;-35
2023/05/02 07:52:25;;;;;;;5.20;0.80;;;10.50;99.90;;;;;;5028640;28;20414;-35
2023/05/02 07:54:51;;;;;;;5.10;1.08;;;10.50;99.90;;;;;;5031110;28;20049;-35
2023/05/02 07:57:17;;;;;;;6.35;1.00;;;10.60;99.90;;;;;;5047958;28;20053;-35
2023/05/02 07:59:43;;;;;;;5.20;1.27;;;10.50;99.90;;;;;;5050940;28;20114;-34
2023/05/02 08:02:11;;;;;;;7.20;0.98;;;10.40;99.90;;;;;;5042822;28;20042;-35
2023/05/02 08:04:37;;;;;;;7.28;1.27;;;10.30;99.90;;;;;;5038360;28;20415;-35
2023/05/02 08:07:03;;;;;;;6.05;0.70;;;10.30;99.90;;;;;;5030841;28;20057;-35
2023/05/02 08:09:28;;;;;;;6.65;1.10;;;10.30;99.90;;;;;;5032088;28;20419;-35
2023/05/02 08:11:54;;;;;;;3.95;1.25;;;10.20;99.90;;;;;;5037138;28;20496;-35
2023/05/02 08:14:20;;;;;;;5.90;1.38;;;10.10;99.90;;;;;;5046723;28;20045;-35
2023/05/02 08:16:45;;;;;;;7.28;1.63;;;10.10;99.90;;;;;;5043128;28;20052;-35
2023/05/02 08:19:11;;;;;;;5.43;1.35;;;10.20;99.90;;;;;;5034685;28;20042;-35
2023/05/02 08:21:36;;;;;;;7.68;1.20;;;10.30;99.90;;;;;;5030037;28;20053;-36
2023/05/02 08:24:02;;;;;;;7.68;1.58;;;10.40;99.90;;;;;;5029127;28;20040;-36
2023/05/02 08:26:28;;;;;;;7.10;1.25;;;10.40;99.90;;;;;;5033467;28;20492;-35
2023/05/02 08:28:54;;;;;;;7.53;1.77;;;10.50;99.90;;;;;;5045304;28;20402;-35
2023/05/02 08:31:20;;;;;;;5.05;1.15;;;10.50;99.90;;;;;;5029702;28;20072;-35
2023/05/02 08:33:46;;;;;;;6.15;2.22;;;10.60;99.90;;;;;;5042867;28;20049;-35
2023/05/02 08:36:13;;;;;;;4.57;1.20;;;10.70;99.90;;;;;;5034365;28;20045;-35
2023/05/02 08:38:40;;;;;;;4.70;1.00;;;10.80;99.90;;;;;;5032843;28;20057;-34
2023/05/02 08:41:16;;;;;;;4.30;1.30;;;10.90;99.90;;;;;;5043441;28;20176;-35
2023/05/02 08:43:46;;;;;;;3.78;0.90;;;11.00;99.90;;;;;;5048578;28;20050;-35
2023/05/02 08:46:13;;;;;;;4.85;1.55;;;11.10;99.90;;;;;;5037304;28;20510;-35
2023/05/02 08:48:40;;;;;;;3.42;0.98;;;11.20;99.90;;;;;;5030268;28;20511;-35
2023/05/02 08:51:14;;;;;;;4.88;0.77;;;11.20;99.90;;;;;;5030040;28;20057;-35
2023/05/02 08:53:40;;;;;;;1.92;1.02;;;11.20;99.90;;;;;;5029461;28;20049;-34
2023/05/02 08:56:08;;;;;;;7.68;1.40;;;11.30;99.90;;;;;;5030172;28;20522;-35
2023/05/02 08:58:35;;;;;;;3.78;0.90;;;11.40;99.90;;;;;;5029015;28;20545;-35
2023/05/02 09:01:03;;;;;;;7.63;1.40;;;11.30;99.90;;;;;;5030065;28;20061;-34
2023/05/02 09:03:33;;;;;;;3.40;0.85;;;11.30;99.90;;;;;;5043288;28;20045;-34
2023/05/02 09:06:08;;;;;;;4.50;1.17;;;11.30;99.90;;;;;;5035310;28;20044;-34
2023/05/02 09:08:35;;;;;;;4.30;1.13;;;11.30;99.90;;;;;;5030387;28;20052;-35
2023/05/02 09:11:02;;;;;;;2.40;1.02;;;11.30;99.90;;;;;;5043810;28;20141;-35
2023/05/02 09:13:34;;;;;;;6.03;1.10;;;11.30;99.90;;;;;;5039541;28;20108;-35
2023/05/02 09:16:05;;;;;;;7.65;0.93;;;11.30;99.90;;;;;;5035044;28;20648;-35
2023/05/02 09:18:36;;;;;;;5.47;1.20;;;11.20;99.90;;;;;;5039213;28;20053;-35
2023/05/02 09:21:09;;;;;;;5.97;1.27;;;11.20;99.90;;;;;;5031026;28;20049;-35
2023/05/02 09:23:46;;;;;;;3.67;1.00;;;11.20;99.90;;;;;;5037118;28;20059;-35
2023/05/02 09:26:17;;;;;;;4.32;1.00;;;11.10;99.90;;;;;;5030149;28;20102;-35
2023/05/02 09:28:51;;;;;;;7.50;1.20;;;11.00;99.90;;;;;;5045749;28;20559;-35
2023/05/02 09:31:20;;;;;;;5.13;1.45;;;11.00;99.90;;;;;;5029766;28;20509;-35
2023/05/02 09:33:46;;;;;;;5.57;1.42;;;11.00;99.90;;;;;;5040384;28;20166;-35
2023/05/02 09:36:14;;;;;;;4.68;0.90;;;10.80;99.90;;;;;;5034373;28;20404;-35
2023/05/02 09:38:41;;;;;;;4.72;0.98;;;10.70;99.90;;;;;;5035617;28;20510;-36
2023/05/02 09:41:07;;;;;;;3.22;1.08;;;10.60;99.90;;;;;;5027502;28;20145;-33
2023/05/02 09:43:33;;;;;;;7.65;1.08;;;10.60;99.90;;;;;;5028817;28;20415;-34
2023/05/02 09:46:04;;;;;;;7.18;1.70;;;10.60;99.90;;;;;;5042146;28;20055;-34
2023/05/02 09:48:32;;;;;;;5.90;0.90;;;10.70;99.90;;;;;;5047342;28;20495;-34
2023/05/02 09:50:57;;;;;;;3.80;1.02;;;10.80;99.90;;;;;;5034056;28;20068;-32
2023/05/02 09:53:27;;;;;;;5.32;1.33;;;10.80;99.90;;;;;;5032693;28;20092;-33
2023/05/02 09:56:03;;;;;;;5.35;1.17;;;10.90;99.90;;;;;;5035580;28;20048;-32
2023/05/02 09:58:29;;;;;;;7.30;1.50;;;10.90;99.90;;;;;;5043807;28;20533;-32
2023/05/02 10:00:56;;;;;;;3.70;1.00;;;11.00;99.90;;;;;;5029268;28;20136;-32
2023/05/02 10:03:23;;;;;;;4.90;1.38;;;11.10;99.90;;;;;;5028837;28;20418;-32
2023/05/02 10:05:49;;;;;;;5.47;1.10;;;11.30;99.90;;;;;;5046287;28;20060;-32
2023/05/02 10:08:18;;;;;;;6.20;1.95;;;11.30;99.90;;;;;;5034620;28;20057;-32
2023/05/02 10:10:52;;;;;;;5.97;1.60;;;11.50;99.90;;;;;;5028099;28;20112;-32
2023/05/02 10:13:21;;;;;;;3.78;0.90;;;11.60;99.90;;;;;;5029286;28;20054;-32
2023/05/02 10:15:49;;;;;;;6.35;1.10;;;11.80;99.90;;;;;;5034541;28;20124;-32
2023/05/02 10:18:24;;;;;;;6.93;1.27;;;11.80;99.90;;;;;;5052664;28;20506;-32
2023/05/02 10:20:57;;;;;;;3.88;1.02;;;12.00;99.90;;;;;;5032031;28;20208;-32
2023/05/02 10:23:26;;;;;;;3.80;0.82;;;12.00;99.90;;;;;;5048464;28;20053;-33
2023/05/02 10:25:53;;;;;;;3.45;0.70;;;12.10;99.90;;;;;;5048549;28;20522;-33
2023/05/02 10:28:19;;;;;;;2.72;0.75;;;12.00;99.90;;;;;;5032686;28;20046;-33
2023/05/02 10:30:46;;;;;;;7.30;0.90;;;12.10;99.90;;;;;;5031943;28;20151;-33
2023/05/02 10:33:16;;;;;;;4.45;0.70;;;12.10;99.90;;;;;;5032669;28;20140;-32
2023/05/02 10:35:45;;;;;;;3.80;0.70;;;12.10;99.90;;;;;;5032121;28;20522;-32
2023/05/02 10:38:18;;;;;;;2.95;0.70;;;12.20;99.90;;;;;;5041012;28;20503;-33
2023/05/02 10:40:54;;;;;;;3.88;0.80;;;12.40;99.90;;;;;;5031857;28;20427;-33
2023/05/02 10:43:22;;;;;;;3.35;0.65;;;12.50;99.90;;;;;;5038233;28;20052;-33
2023/05/02 10:45:48;;;;;;;6.07;0.77;;;12.60;99.90;;;;;;5040043;28;20121;-32
2023/05/02 10:48:25;;;;;;;6.00;1.08;;;12.60;99.90;;;;;;5032062;28;20050;-34
2023/05/02 10:50:52;;;;;;;5.40;0.65;;;12.90;99.90;;;;;;5031973;28;20111;-34
2023/05/02 10:53:24;;;;;;;3.70;0.65;;;13.20;99.90;;;;;;5046430;28;20076;-34
2023/05/02 10:56:25;;;;;;;4.43;0.70;;;13.30;99.90;;;;;;5032944;28;20053;-34
2023/05/02 10:58:52;;;;;;;2.15;0.60;;;13.30;99.90;;;;;;5010133;28;20568;-34
2023/05/02 11:01:23;;;;;;;6.82;0.77;;;13.30;99.90;;;;;;5027484;28;20057;-33
2023/05/02 11:03:55;;;;;;;7.75;1.45;;;13.20;99.90;;;;;;5051021;28;20049;-34
2023/05/02 11:06:20;;;;;;;4.63;0.90;;;13.20;99.90;;;;;;5051399;28;20422;-34
2023/05/02 11:08:46;;;;;;;7.30;0.93;;;13.20;99.90;;;;;;5043693;28;20054;-34
2023/05/02 11:11:37;;;;;;;3.75;0.90;;;13.20;99.90;;;;;;5038812;28;20053;-34
2023/05/02 11:14:02;;;;;;;3.05;0.70;;;13.40;99.90;;;;;;5028914;28;20052;-34
2023/05/02 11:16:57;;;;;;;2.22;0.70;;;13.50;99.90;;;;;;5044843;28;20467;-33
2023/05/02 11:19:43;;;;;;;2.35;0.93;;;13.60;99.90;;;;;;5033199;28;20530;-34
2023/05/02 11:22:22;;;;;;;4.80;0.82;;;13.60;99.90;;;;;;5023323;28;20073;-34
2023/05/02 11:24:49;;;;;;;2.88;0.63;;;13.70;99.90;;;;;;5035847;28;20061;-34
2023/05/02 11:27:32;;;;;;;4.43;0.70;;;13.70;99.90;;;;;;5030500;28;20060;-34
2023/05/02 11:29:59;;;;;;;3.50;0.60;;;13.70;99.90;;;;;;5031204;28;20068;-34
2023/05/02 11:35:30;;;;;;;2.92;0.70;;;14.00;99.90;;;;;;5039708;28;20054;-34
2023/05/02 11:38:03;;;;;;;2.30;0.60;;;14.30;99.90;;;;;;5051071;28;20111;-34
2023/05/02 11:40:30;;;;;;;1.80;0.50;;;14.50;99.90;;;;;;5042600;28;20057;-34
2023/05/02 11:42:57;;;;;;;3.83;0.68;;;14.50;99.90;;;;;;5044299;28;20389;-33
2023/05/02 11:45:36;;;;;;;2.97;0.70;;;14.40;99.90;;;;;;5041495;28;20723;-34
2023/05/02 11:48:05;;;;;;;1.90;0.45;;;14.30;99.90;;;;;;5043206;28;20061;-35
2023/05/02 11:50:32;;;;;;;2.45;0.60;;;14.10;99.90;;;;;;5032781;28;20422;-35
2023/05/02 11:52:58;;;;;;;1.88;0.40;;;13.90;99.90;;;;;;5044089;28;20084;-35
2023/05/02 11:55:24;;;;;;;3.83;0.80;;;13.80;99.90;;;;;;5030574;28;20152;-35
2023/05/02 11:57:50;;;;;;;2.75;0.70;;;13.70;99.90;;;;;;5031376;28;20574;-35
2023/05/02 12:00:17;;;;;;;3.55;0.60;;;13.80;99.90;;;;;;5038542;28;20056;-34
2023/05/02 12:02:44;;;;;;;2.58;0.60;;;13.90;99.90;;;;;;5031148;28;20176;-35
2023/05/02 12:05:14;;;;;;;4.25;0.60;;;13.90;99.90;;;;;;5046490;28;20041;-34
2023/05/02 12:07:43;;;;;;;3.25;0.50;;;14.00;99.90;;;;;;5030912;28;20053;-35
2023/05/02 12:10:10;;;;;;;3.08;0.52;;;14.10;99.90;;;;;;5028500;28;20064;-34
2023/05/02 12:12:38;;;;;;;1.42;0.60;;;14.10;99.90;;;;;;5030771;28;20057;-35
2023/05/02 12:15:08;;;;;;;2.88;0.50;;;14.20;99.90;;;;;;5039127;28;20080;-35
2023/05/02 12:17:37;;;;;;;2.40;0.45;;;14.10;99.90;;;;;;5022669;28;20053;-35
2023/05/02 12:20:04;;;;;;;2.70;0.70;;;14.20;99.90;;;;;;5030557;28;20115;-35
2023/05/02 12:22:30;;;;;;;3.30;0.60;;;14.30;99.90;;;;;;5041005;28;20048;-35
2023/05/02 12:24:56;;;;;;;5.63;0.70;;;14.30;99.90;;;;;;5036281;28;20518;-35
2023/05/02 12:27:21;;;;;;;2.92;0.57;;;14.10;99.90;;;;;;5039407;28;20048;-36
2023/05/02 12:29:48;;;;;;;3.38;0.70;;;14.10;99.90;;;;;;5050054;28;20157;-35
2023/05/02 12:32:17;;;;;;;2.38;0.65;;;14.10;99.90;;;;;;5049690;28;20045;-35
2023/05/02 12:34:43;;;;;;;1.40;0.50;;;14.10;99.90;;;;;;5042609;28;20041;-35
2023/05/02 12:37:08;;;;;;;3.10;0.40;;;14.10;99.90;;;;;;5033934;28;20115;-35
2023/05/02 12:39:36;;;;;;;4.55;0.57;;;14.30;99.90;;;;;;5029468;28;20087;-35
2023/05/02 12:42:12;;;;;;;4.45;0.60;;;14.50;99.90;;;;;;5035751;28;20103;-36
2023/05/02 12:44:40;;;;;;;1.27;0.50;;;14.50;99.90;;;;;;5025246;28;20053;-35
2023/05/02 12:47:07;;;;;;;4.63;0.70;;;14.50;99.90;;;;;;5041528;28;20506;-36
2023/05/02 12:49:46;;;;;;;4.22;0.60;;;14.50;99.90;;;;;;5046585;28;20048;-35
2023/05/02 12:52:12;;;;;;;6.80;0.63;;;14.40;99.90;;;;;;5038301;28;20562;-36
2023/05/02 12:54:38;;;;;;;4.45;0.65;;;14.20;99.90;;;;;;5037342;28;20164;-35
2023/05/02 12:57:04;;;;;;;1.48;0.40;;;14.00;99.90;;;;;;5030248;28;20140;-36